createdAt,value
2018-09-18T00:02:24.547Z,79.25
2018-09-18T00:05:28.665Z,79.85
2018-09-18T00:08:33.266Z,79.64
2018-09-18T00:11:37.454Z,79.98
2018-09-18T00:14:41.461Z,79.14
2018-09-18T00:17:46.048Z,79.57
2018-09-18T00:20:51.140Z,79.65
2018-09-18T00:23:55.819Z,80.08
2018-09-18T00:26:59.800Z,80.29
2018-09-18T00:30:04.925Z,80.69
2018-09-18T00:33:09.645Z,79.87
2018-09-18T00:36:14.178Z,80.07
2018-09-18T00:39:18.155Z,80.16
2018-09-18T00:42:23.335Z,80.10
2018-09-18T00:45:28.001Z,79.92
2018-09-18T00:48:32.386Z,80.28
2018-09-18T00:51:36.322Z,79.70
2018-09-18T00:54:40.834Z,79.68
2018-09-18T00:57:44.985Z,79.99
2018-09-18T01:00:49.554Z,80.84
2018-09-18T01:03:53.581Z,79.62
2018-09-18T01:06:57.636Z,80.04
2018-09-18T01:10:02.278Z,80.33
2018-09-18T01:13:06.443Z,79.64
2018-09-18T01:16:10.467Z,79.67
2018-09-18T01:19:14.494Z,79.18
2018-09-18T01:22:18.634Z,80.05
2018-09-18T01:25:22.656Z,79.77
2018-09-18T01:28:26.602Z,79.30
2018-09-18T01:31:32.032Z,79.68
2018-09-18T01:34:36.445Z,79.33
2018-09-18T01:37:40.422Z,79.01
2018-09-18T01:40:45.066Z,78.94
2018-09-18T01:43:49.636Z,79.30
2018-09-18T01:46:54.797Z,79.04
2018-09-18T01:49:59.105Z,78.67
2018-09-18T01:53:04.334Z,78.54
2018-09-18T01:56:09.426Z,79.06
2018-09-18T01:59:13.715Z,78.21
2018-09-18T02:02:17.726Z,79.26
2018-09-18T02:05:21.676Z,78.50
2018-09-18T02:08:25.663Z,78.57
2018-09-18T02:11:29.615Z,78.54
2018-09-18T02:14:36.054Z,78.38
2018-09-18T02:17:40.534Z,78.37
2018-09-18T02:20:44.758Z,77.57
2018-09-18T02:23:49.189Z,78.08
2018-09-18T02:26:53.157Z,78.39
2018-09-18T02:29:57.830Z,77.34
2018-09-18T02:33:02.255Z,77.74
2018-09-18T02:36:06.587Z,77.46
2018-09-18T02:39:12.027Z,77.38
2018-09-18T02:42:15.987Z,77.30
2018-09-18T02:45:20.004Z,77.25
2018-09-18T02:48:24.796Z,77.28
2018-09-18T02:51:28.766Z,77.49
2018-09-18T02:54:32.949Z,76.85
2018-09-18T02:57:36.995Z,77.29
2018-09-18T03:00:41.296Z,77.27
2018-09-18T03:03:45.266Z,76.76
2018-09-18T03:06:49.575Z,77.51
2018-09-18T03:09:55.136Z,76.67
2018-09-18T03:12:59.877Z,77.06
2018-09-18T03:16:05.076Z,76.60
2018-09-18T03:19:11.367Z,76.70
2018-09-18T03:22:15.396Z,76.78
2018-09-18T03:25:19.386Z,77.33
2018-09-18T03:28:23.646Z,77.20
2018-09-18T03:31:28.766Z,76.79
2018-09-18T03:34:33.675Z,76.62
2018-09-18T03:37:37.927Z,76.83
2018-09-18T03:40:41.936Z,76.20
2018-09-18T03:43:46.647Z,76.87
2018-09-18T03:46:52.373Z,76.62
2018-09-18T03:49:56.785Z,76.34
2018-09-18T03:53:00.887Z,76.97
2018-09-18T03:56:05.116Z,76.80
2018-09-18T03:59:10.006Z,76.41
2018-09-18T04:02:14.425Z,76.12
2018-09-18T04:05:18.991Z,76.62
2018-09-18T04:08:22.955Z,76.85
2018-09-18T04:11:28.031Z,76.81
2018-09-18T04:14:32.978Z,76.52
2018-09-18T04:17:37.151Z,76.02
2018-09-18T04:20:41.389Z,76.36
2018-09-18T04:35:00.866Z,76.75
2018-09-18T04:38:05.485Z,76.39
2018-09-18T04:41:09.422Z,76.22
2018-09-18T04:44:13.613Z,76.01
2018-09-18T04:47:18.004Z,76.55
2018-09-18T04:50:22.167Z,76.24
2018-09-18T04:53:26.174Z,75.99
2018-09-18T04:56:30.934Z,76.03
2018-09-18T04:59:35.136Z,75.64
2018-09-18T05:02:40.022Z,75.56
2018-09-18T05:05:44.055Z,75.98
2018-09-18T05:08:48.148Z,76.13
2018-09-18T05:11:52.806Z,76.43
2018-09-18T05:14:57.407Z,75.74
2018-09-18T05:18:02.265Z,76.23
2018-09-18T05:21:06.577Z,75.70
2018-09-18T05:24:10.575Z,75.90
2018-09-18T05:27:16.057Z,75.90
2018-09-18T05:30:20.082Z,75.85
2018-09-18T05:33:25.400Z,75.76
2018-09-18T05:36:29.619Z,75.88
2018-09-18T05:39:33.635Z,75.85
2018-09-18T05:42:38.375Z,75.53
2018-09-18T05:45:42.867Z,75.85
2018-09-18T05:48:46.878Z,75.76
2018-09-18T05:51:51.730Z,75.44
2018-09-18T05:54:55.727Z,75.10
2018-09-18T05:58:00.156Z,75.54
2018-09-18T06:01:04.516Z,75.58
2018-09-18T06:04:08.703Z,75.40
2018-09-18T06:07:12.892Z,75.33
2018-09-18T06:10:16.906Z,76.00
2018-09-18T06:13:22.409Z,75.65
2018-09-18T06:16:26.472Z,75.26
2018-09-18T06:19:30.711Z,75.36
2018-09-18T06:22:36.158Z,75.59
2018-09-18T06:25:41.446Z,75.03
2018-09-18T06:28:45.775Z,75.34
2018-09-18T06:31:52.214Z,75.28
2018-09-18T06:34:56.369Z,75.58
2018-09-18T06:38:00.850Z,75.04
2018-09-18T06:41:04.978Z,75.09
2018-09-18T06:44:09.628Z,75.73
2018-09-18T06:47:14.248Z,75.65
2018-09-18T06:50:18.746Z,74.97
2018-09-18T06:53:24.126Z,74.71
2018-09-18T06:56:28.122Z,75.40
2018-09-18T06:59:33.093Z,75.38
2018-09-18T07:02:39.516Z,75.35
2018-09-18T07:05:43.495Z,74.27
2018-09-18T07:08:47.731Z,74.24
2018-09-18T07:11:52.536Z,74.43
2018-09-18T07:14:56.486Z,74.76
2018-09-18T07:18:01.492Z,75.05
2018-09-18T07:21:08.736Z,74.51
2018-09-18T07:24:12.753Z,74.17
2018-09-18T07:27:16.714Z,74.26
2018-09-18T07:30:20.748Z,73.73
2018-09-18T07:33:24.806Z,74.63
2018-09-18T07:36:28.798Z,73.64
2018-09-18T07:39:34.962Z,74.47
2018-09-18T07:42:40.233Z,73.59
2018-09-18T07:45:44.354Z,73.94
2018-09-18T07:48:48.380Z,74.05
2018-09-18T07:51:52.408Z,74.00
2018-09-18T07:54:56.411Z,73.84
2018-09-18T07:58:02.717Z,73.18
2018-09-18T08:01:07.803Z,73.39
2018-09-18T08:04:11.860Z,73.84
2018-09-18T08:07:17.919Z,73.81
2018-09-18T08:10:22.538Z,73.28
2018-09-18T08:13:28.109Z,74.40
2018-09-18T08:16:34.329Z,73.58
2018-09-18T08:19:39.764Z,72.93
2018-09-18T08:22:44.177Z,72.77
2018-09-18T08:25:48.876Z,73.46
2018-09-18T08:28:53.981Z,72.78
2018-09-18T08:31:58.011Z,71.74
2018-09-18T08:35:01.992Z,72.67
2018-09-18T08:38:06.327Z,72.18
2018-09-18T08:41:10.877Z,72.45
2018-09-18T08:44:14.925Z,73.07
2018-09-18T08:47:19.550Z,72.55
2018-09-18T08:50:23.763Z,72.47
2018-09-18T08:53:29.758Z,72.24
2018-09-18T08:56:35.234Z,72.51
2018-09-18T08:59:39.749Z,71.21
2018-09-18T09:02:43.754Z,72.02
2018-09-18T09:05:48.065Z,71.21
2018-09-18T09:08:52.289Z,71.87
2018-09-18T09:11:56.496Z,71.50
2018-09-18T09:15:01.823Z,71.05
2018-09-18T09:18:06.317Z,70.67
2018-09-18T09:21:11.103Z,70.40
2018-09-18T09:24:15.898Z,69.39
2018-09-18T09:27:20.251Z,68.38
2018-09-18T09:30:24.430Z,67.46
2018-09-18T09:33:28.392Z,68.05
2018-09-18T09:36:36.453Z,68.11
2018-09-18T09:39:41.037Z,68.11
2018-09-18T09:42:45.028Z,68.55
2018-09-18T09:45:49.011Z,68.78
2018-09-18T09:48:53.014Z,68.82
2018-09-18T09:51:57.024Z,69.14
2018-09-18T09:55:01.191Z,67.07
2018-09-18T09:58:05.981Z,68.82
2018-09-18T10:01:16.591Z,68.60
2018-09-18T10:04:21.488Z,65.98
2018-09-18T10:07:26.248Z,66.19
2018-09-18T10:10:30.270Z,67.79
2018-09-18T10:13:34.452Z,67.17
2018-09-18T10:16:39.606Z,66.80
2018-09-18T10:19:44.223Z,67.58
2018-09-18T10:22:48.213Z,66.31
2018-09-18T10:25:53.032Z,67.82
2018-09-18T10:28:59.384Z,66.60
2018-09-18T10:32:03.605Z,66.66
2018-09-18T10:35:08.242Z,66.18
2018-09-18T10:38:12.497Z,66.48
2018-09-18T10:41:16.694Z,65.24
2018-09-18T10:44:20.777Z,65.60
2018-09-18T10:47:28.758Z,65.48
2018-09-18T10:50:33.039Z,64.99
2018-09-18T10:53:38.366Z,65.45
2018-09-18T10:56:42.356Z,65.93
2018-09-18T10:59:46.473Z,65.95
2018-09-18T11:02:50.712Z,64.16
2018-09-18T11:05:56.068Z,62.45
2018-09-18T11:09:00.446Z,63.90
2018-09-18T11:12:05.302Z,62.98
2018-09-18T11:15:09.786Z,62.88
2018-09-18T11:18:13.845Z,62.57
2018-09-18T11:21:19.817Z,61.01
2018-09-18T11:24:24.068Z,60.21
2018-09-18T11:27:28.235Z,61.26
2018-09-18T11:30:32.498Z,61.67
2018-09-18T11:33:36.546Z,61.56
2018-09-18T11:36:41.987Z,61.75
2018-09-18T11:39:46.677Z,59.97
2018-09-18T11:42:50.717Z,61.21
2018-09-18T11:45:56.281Z,61.35
2018-09-18T11:49:00.579Z,62.11
2018-09-18T11:52:04.667Z,60.20
2018-09-18T11:55:09.248Z,59.72
2018-09-18T11:58:13.682Z,60.80
2018-09-18T12:01:18.242Z,59.96
2018-09-18T12:04:22.332Z,61.15
2018-09-18T12:07:26.396Z,61.62
2018-09-18T12:10:30.620Z,60.01
2018-09-18T12:13:34.876Z,59.88
2018-09-18T12:16:39.094Z,59.33
2018-09-18T12:19:43.096Z,58.87
2018-09-18T12:22:49.438Z,59.16
2018-09-18T12:25:54.436Z,60.26
2018-09-18T12:28:58.504Z,59.52
2018-09-18T12:32:02.687Z,60.27
2018-09-18T12:35:08.141Z,58.82
2018-09-18T12:38:12.385Z,58.29
2018-09-18T12:41:16.481Z,55.46
2018-09-18T12:44:20.858Z,59.25
2018-09-18T12:47:25.049Z,57.63
2018-09-18T12:50:30.407Z,57.23
2018-09-18T12:53:35.010Z,58.17
2018-09-18T12:56:41.382Z,58.38
2018-09-18T12:59:45.993Z,57.24
2018-09-18T13:02:51.595Z,56.23
2018-09-18T13:05:56.121Z,56.29
2018-09-18T13:09:00.427Z,56.44
2018-09-18T13:12:06.027Z,57.29
2018-09-18T13:15:10.410Z,55.42
2018-09-18T13:18:15.308Z,55.97
2018-09-18T13:21:19.546Z,55.23
2018-09-18T13:24:23.778Z,54.84
2018-09-18T13:27:27.770Z,55.58
2018-09-18T13:30:32.347Z,55.81
2018-09-18T13:33:36.755Z,53.77
2018-09-18T13:36:42.908Z,50.71
2018-09-18T13:39:46.919Z,52.42
2018-09-18T13:42:51.314Z,53.39
2018-09-18T13:45:56.255Z,52.93
2018-09-18T13:49:00.269Z,52.16
2018-09-18T13:52:04.750Z,52.49
2018-09-18T13:55:09.028Z,48.72
2018-09-18T13:58:13.456Z,49.96
2018-09-18T14:01:17.845Z,51.11
2018-09-18T14:04:22.612Z,52.05
2018-09-18T14:07:27.174Z,49.57
2018-09-18T14:10:31.257Z,53.04
2018-09-18T14:13:35.455Z,53.33
2018-09-18T14:16:40.188Z,51.84
2018-09-18T14:19:44.496Z,50.65
2018-09-18T14:22:48.833Z,52.86
2018-09-18T14:25:52.838Z,52.18
2018-09-18T14:28:57.057Z,52.35
2018-09-18T14:32:01.040Z,50.75
2018-09-18T14:35:06.092Z,51.61
2018-09-18T14:38:10.153Z,52.12
2018-09-18T14:41:15.235Z,52.24
2018-09-18T14:44:19.436Z,52.12
2018-09-18T14:47:23.691Z,49.40
2018-09-18T14:50:27.727Z,49.32
2018-09-18T14:53:31.690Z,49.75
2018-09-18T14:56:35.718Z,50.95
2018-09-18T14:59:39.962Z,50.74
2018-09-18T15:02:44.488Z,50.28
2018-09-18T15:05:49.174Z,51.21
2018-09-18T15:08:53.187Z,48.88
2018-09-18T15:11:57.590Z,51.53
2018-09-18T15:15:01.650Z,50.28
2018-09-18T15:18:05.666Z,52.21
2018-09-18T15:21:11.266Z,51.24
2018-09-18T15:24:15.691Z,49.76
2018-09-18T15:27:19.666Z,49.41
2018-09-18T15:30:23.667Z,51.00
2018-09-18T15:33:27.800Z,50.91
2018-09-18T15:36:33.856Z,51.66
2018-09-18T15:39:38.057Z,50.75
2018-09-18T15:42:42.218Z,51.17
2018-09-18T15:45:49.269Z,52.37
2018-09-18T15:48:54.446Z,51.08
2018-09-18T15:51:58.490Z,52.01
2018-09-18T15:55:04.627Z,52.34
2018-09-18T15:58:08.749Z,52.90
2018-09-18T16:01:12.903Z,51.88
2018-09-18T16:04:17.927Z,52.99
2018-09-18T16:07:22.777Z,52.45
2018-09-18T16:10:28.883Z,53.52
2018-09-18T16:13:33.036Z,53.48
2018-09-18T16:16:37.092Z,53.85
2018-09-18T16:19:41.801Z,53.41
2018-09-18T16:22:46.572Z,53.64
2018-09-18T16:25:50.716Z,53.87
2018-09-18T16:28:54.748Z,53.07
2018-09-18T16:31:59.205Z,54.13
2018-09-18T16:35:03.202Z,54.60
2018-09-18T16:38:07.291Z,54.32
2018-09-18T16:41:11.704Z,55.18
2018-09-18T16:44:15.686Z,55.46
2018-09-18T16:47:20.224Z,55.74
2018-09-18T16:50:25.285Z,56.35
2018-09-18T16:53:29.519Z,55.87
2018-09-18T16:56:35.499Z,55.59
2018-09-18T16:59:40.306Z,55.83
2018-09-18T17:02:45.057Z,56.49
2018-09-18T17:05:49.449Z,57.48
2018-09-18T17:08:55.138Z,57.02
2018-09-18T17:11:59.590Z,57.14
2018-09-18T17:15:04.616Z,56.96
2018-09-18T17:18:09.122Z,56.52
2018-09-18T17:21:13.229Z,57.39
2018-09-18T17:24:18.127Z,56.44
2018-09-18T17:27:22.457Z,56.56
2018-09-18T17:30:28.201Z,57.09
2018-09-18T17:33:32.590Z,57.26
2018-09-18T17:36:38.877Z,57.65
2018-09-18T17:39:43.345Z,58.63
2018-09-18T17:42:48.098Z,58.82
2018-09-18T17:45:53.716Z,59.97
2018-09-18T17:48:57.754Z,60.61
2018-09-18T17:52:06.152Z,60.69
2018-09-18T17:55:12.926Z,61.03
2018-09-18T17:58:19.112Z,61.26
2018-09-18T18:01:23.426Z,61.68
2018-09-18T18:05:50.265Z,61.69
2018-09-18T18:09:06.974Z,61.24
2018-09-18T18:12:11.104Z,61.81
2018-09-18T18:15:15.185Z,62.89
2018-09-18T18:18:19.511Z,63.47
2018-09-18T18:21:23.439Z,62.72
2018-09-18T18:24:27.560Z,63.31
2018-09-18T18:27:34.407Z,63.29
2018-09-18T18:30:39.544Z,62.95
2018-09-18T18:33:52.070Z,64.69
2018-09-18T19:40:53.012Z,70.17
2018-09-18T19:43:56.979Z,69.37
2018-09-18T19:47:01.164Z,70.39
2018-09-18T19:50:09.169Z,71.00
2018-09-18T19:53:13.375Z,72.27
2018-09-18T19:56:17.357Z,72.59
2018-09-18T19:59:21.401Z,72.82
2018-09-18T20:02:25.614Z,72.88
2018-09-18T20:05:29.598Z,71.89
2018-09-18T20:08:53.081Z,71.51
2018-09-18T20:11:57.837Z,70.65
2018-09-18T20:15:01.855Z,71.82
2018-09-18T20:18:06.281Z,72.33
2018-09-18T20:21:10.928Z,72.64
2018-09-18T20:24:14.975Z,72.35
2018-09-18T20:27:19.202Z,73.75
2018-09-18T20:30:23.190Z,74.46
2018-09-18T20:33:27.499Z,74.71
2018-09-18T20:36:31.854Z,75.42
2018-09-18T20:39:35.965Z,73.67
2018-09-18T20:42:40.220Z,74.34
2018-09-18T20:45:44.203Z,74.69
2018-09-18T20:48:48.217Z,73.46
2018-09-18T20:51:52.234Z,74.32
2018-09-18T20:54:56.213Z,73.81
2018-09-18T20:58:00.326Z,74.65
2018-09-18T21:01:04.296Z,74.90
2018-09-18T21:04:08.510Z,75.36
2018-09-18T21:07:12.494Z,75.14
2018-09-18T21:10:16.494Z,75.20
2018-09-18T21:13:20.522Z,76.71
2018-09-18T21:16:24.513Z,75.49
2018-09-18T21:19:28.668Z,75.35
2018-09-18T21:22:32.856Z,76.01
2018-09-18T21:26:16.550Z,77.06
2018-09-18T21:29:20.580Z,75.89
2018-09-18T21:32:24.831Z,76.11
2018-09-18T21:35:29.079Z,77.52
2018-09-18T21:38:33.162Z,76.71
2018-09-18T21:41:37.215Z,77.39
2018-09-18T21:44:41.558Z,76.99
2018-09-18T21:47:45.526Z,77.85
2018-09-18T21:50:49.755Z,78.08
2018-09-18T21:53:53.916Z,78.27
2018-09-18T21:56:58.232Z,79.88
2018-09-18T22:00:02.304Z,78.85
2018-09-18T22:03:06.264Z,79.57
2018-09-18T22:06:10.636Z,79.20
2018-09-18T22:09:14.637Z,80.08
2018-09-18T22:12:18.740Z,79.79
2018-09-18T22:15:23.386Z,80.10
2018-09-18T22:18:27.385Z,79.24
2018-09-18T22:21:31.382Z,79.68
2018-09-18T22:24:35.322Z,80.29
2018-09-18T22:27:39.589Z,79.44
2018-09-18T22:30:43.759Z,80.20
2018-09-18T22:33:48.105Z,80.26
2018-09-18T22:36:52.155Z,80.53
2018-09-18T22:39:56.584Z,79.78
2018-09-18T22:43:00.620Z,79.81
2018-09-18T22:46:05.406Z,80.21
2018-09-18T22:49:09.407Z,80.92
2018-09-18T22:52:13.376Z,80.14
2018-09-18T22:55:17.551Z,80.75
2018-09-18T22:58:21.545Z,81.63
2018-09-18T23:01:26.420Z,81.85
2018-09-18T23:04:30.385Z,80.59
2018-09-18T23:07:34.935Z,80.85
2018-09-18T23:10:38.956Z,81.77
2018-09-18T23:13:42.955Z,81.86
2018-09-18T23:16:47.572Z,81.91
2018-09-18T23:19:51.975Z,81.81
2018-09-18T23:22:55.967Z,82.09
2018-09-18T23:26:00.336Z,82.83
2018-09-18T23:29:05.106Z,81.87
2018-09-18T23:32:09.049Z,82.31
2018-09-18T23:35:13.396Z,82.71
2018-09-18T23:38:17.358Z,82.60
2018-09-18T23:41:21.316Z,82.78
2018-09-18T23:44:26.008Z,81.87
2018-09-18T23:47:30.397Z,82.81
2018-09-18T23:50:34.998Z,82.97
2018-09-18T23:53:40.237Z,83.23
2018-09-18T23:56:44.202Z,83.72
2018-09-18T23:59:48.208Z,83.27
